C35 weather

Reedsburg Municipal Airport
Reedsburg, Wisconsin, United States

Public forecast

Using degrees Fahrenheit for public forecast. Weather courtesy of forecast.io.

METAR (pilot weather report)

Retrieved 2019/07/20 04:35 UTC (0 seconds ago):

KC35 200435Z AUTO 17004KT 10SM OVC050 29/27 A2977 RMK AO2 T02850269 PWINO

TAF (pilot weather forecast)

Forecast is more than 6 hours old.

Closest forecast is Volk Field, 27.4 nm (50.8 km) NNW. Retrieved 2019/07/19 17:09 UTC (11 hours ago):

TAF KVOK 191700Z 1917/2023 VRB06KT 9999 SCT020 QNH2967INS BECMG 1918/1919 19012KT 9999 SCT010 BKN025 QNH2966INS TEMPO 2004/2007 28025G40KT 3200 TSRA SCT007 OVC010CB BECMG 2006/2007 23009KT 8000 -SHRA SCT007 BKN010 OVC020 QNH2971INS BECMG 2013/2014 25006KT 9999 NSW SCT010 BKN020 QNH2981INS TEMPO 2019/2022 27015G25KT 4800 -TSRA SCT020 BKN040CB TX35/1920Z TN20/2010Z LAST NO AMDS AFT 1921 NEXT 2009